createdAt,value
2023-05-08T00:00:26.170Z,101727.78
2023-05-08T00:02:56.149Z,101657.38
2023-05-08T00:05:26.219Z,101732.13
2023-05-08T00:08:01.471Z,101706.03
2023-05-08T00:10:32.175Z,101732.66
2023-05-08T00:13:04.598Z,101710.81
2023-05-08T00:15:34.417Z,101728.22
2023-05-08T00:18:04.214Z,101726.59
2023-05-08T00:20:34.528Z,101701.81
2023-05-08T00:23:04.262Z,101698.31
2023-05-08T00:25:34.156Z,101714.28
2023-05-08T00:28:06.552Z,101703.03
2023-05-08T00:30:36.548Z,101717.78
2023-05-08T00:33:06.519Z,101700.88
2023-05-08T00:35:36.386Z,101713.22
2023-05-08T00:38:06.174Z,101692.88
2023-05-08T00:40:36.042Z,101691.53
2023-05-08T00:43:08.436Z,101708.53
2023-05-08T00:45:40.726Z,101715.88
2023-05-08T00:48:11.108Z,101720.72
2023-05-08T00:50:40.931Z,101713.38
2023-05-08T00:53:10.895Z,101727.72
2023-05-08T00:55:41.227Z,101722.53
2023-05-08T00:58:14.140Z,101723.00
2023-05-08T01:00:46.781Z,101699.81
2023-05-08T01:03:17.727Z,101675.75
2023-05-08T01:05:48.604Z,101716.63
2023-05-08T01:08:18.753Z,101694.72
2023-05-08T01:11:04.690Z,101685.69
2023-05-08T01:13:52.696Z,101695.28
2023-05-08T01:16:31.447Z,101705.84
2023-05-08T01:19:09.984Z,101686.47
2023-05-08T01:21:46.899Z,101700.09
2023-05-08T01:24:45.461Z,101706.00
2023-05-08T01:27:43.589Z,101683.13
2023-05-08T01:30:48.824Z,101702.66
2023-05-08T01:33:27.547Z,101709.25
2023-05-08T01:36:02.161Z,101705.69
2023-05-08T01:38:36.394Z,101711.13
2023-05-08T01:41:11.775Z,101710.50
2023-05-08T01:43:50.085Z,101709.31
2023-05-08T01:46:25.645Z,101710.44
2023-05-08T01:49:06.587Z,101702.88
2023-05-08T01:51:43.907Z,101682.94
2023-05-08T01:54:18.655Z,101688.50
2023-05-08T01:56:50.843Z,101687.97
2023-05-08T01:59:24.853Z,101692.50
2023-05-08T02:01:58.914Z,101686.78
2023-05-08T02:04:32.561Z,101697.91
2023-05-08T02:07:03.783Z,101689.78
2023-05-08T02:09:34.386Z,101691.88
2023-05-08T02:12:05.845Z,101706.41
2023-05-08T02:14:36.781Z,101689.88
2023-05-08T02:17:09.588Z,101702.63
2023-05-08T02:19:44.103Z,101699.28
2023-05-08T02:22:14.884Z,101638.13
2023-05-08T02:24:48.289Z,101700.69
2023-05-08T02:27:19.476Z,101695.53
2023-05-08T02:29:49.899Z,101705.19
2023-05-08T02:32:21.902Z,101687.72
2023-05-08T02:35:03.228Z,101677.25
2023-05-08T02:37:34.880Z,101692.63
2023-05-08T02:40:06.838Z,101684.97
2023-05-08T02:42:36.718Z,101697.97
2023-05-08T02:45:07.207Z,101686.78
2023-05-08T02:47:48.973Z,101680.81
2023-05-08T02:50:25.764Z,101657.47
2023-05-08T02:53:03.250Z,101681.88
2023-05-08T02:55:43.259Z,101686.03
2023-05-08T02:58:21.817Z,101680.25
2023-05-08T03:00:57.970Z,101684.53
2023-05-08T03:03:31.805Z,101682.25
2023-05-08T03:06:06.374Z,101680.25
2023-05-08T03:08:38.125Z,101679.88
2023-05-08T03:11:14.701Z,101668.13
2023-05-08T03:13:47.028Z,101666.28
2023-05-08T03:16:21.285Z,101678.78
2023-05-08T03:18:55.786Z,101664.88
2023-05-08T03:21:32.033Z,101670.03
2023-05-08T03:24:05.029Z,101685.50
2023-05-08T03:26:35.222Z,101669.72
2023-05-08T03:29:05.844Z,101685.19
2023-05-08T03:31:38.019Z,101675.69
2023-05-08T03:34:09.603Z,101664.63
2023-05-08T03:36:42.429Z,101672.00
2023-05-08T03:39:12.645Z,101674.19
2023-05-08T03:41:43.304Z,101620.28
2023-05-08T03:44:14.526Z,101663.34
2023-05-08T03:46:45.530Z,101673.00
2023-05-08T03:49:17.230Z,101642.03
2023-05-08T03:51:50.377Z,101672.09
2023-05-08T03:54:20.218Z,101619.06
2023-05-08T03:56:50.061Z,101672.19
2023-05-08T03:59:27.569Z,101667.19
2023-05-08T04:02:08.085Z,101639.25
2023-05-08T04:04:42.670Z,101654.47
2023-05-08T04:07:27.331Z,101661.69
2023-05-08T04:10:03.277Z,101674.06
2023-05-08T04:12:42.631Z,101632.41
2023-05-08T04:15:17.380Z,101663.16
2023-05-08T04:17:52.784Z,101671.88
2023-05-08T04:20:24.996Z,101660.78
2023-05-08T04:22:58.701Z,101660.59
2023-05-08T04:25:29.296Z,101655.69
2023-05-08T04:27:59.295Z,101657.25
2023-05-08T04:30:30.631Z,101646.19
2023-05-08T04:33:02.072Z,101655.34
2023-05-08T04:35:32.795Z,101652.97
2023-05-08T04:38:05.791Z,101635.56
2023-05-08T04:40:35.719Z,101645.50
2023-05-08T04:43:06.262Z,101646.56
2023-05-08T04:45:36.333Z,101668.34
2023-05-08T04:48:06.443Z,101672.75
2023-05-08T04:50:36.326Z,101671.03
2023-05-08T04:53:09.009Z,101675.72
2023-05-08T04:55:39.142Z,101676.53
2023-05-08T04:58:09.216Z,101643.13
2023-05-08T05:00:39.464Z,101667.66
2023-05-08T05:03:09.393Z,101674.44
2023-05-08T05:05:39.357Z,101665.28
2023-05-08T05:08:14.481Z,101685.56
2023-05-08T05:10:44.471Z,101693.84
2023-05-08T05:13:14.337Z,101693.91
2023-05-08T05:15:45.188Z,101673.47
2023-05-08T05:18:16.026Z,101688.88
2023-05-08T05:20:46.242Z,101698.44
2023-05-08T05:23:18.957Z,101688.97
2023-05-08T05:25:48.803Z,101703.31
2023-05-08T05:28:19.389Z,101698.25
2023-05-08T05:30:50.117Z,101699.88
2023-05-08T05:33:20.337Z,101684.19
2023-05-08T05:35:50.300Z,101723.25
2023-05-08T05:38:22.759Z,101700.56
2023-05-08T05:40:52.681Z,101718.00
2023-05-08T05:43:22.464Z,101707.16
2023-05-08T05:45:52.266Z,101704.56
2023-05-08T05:48:22.471Z,101686.72
2023-05-08T05:50:52.684Z,101703.56
2023-05-08T05:53:25.502Z,101723.28
2023-05-08T05:55:55.863Z,101712.25
2023-05-08T05:58:26.044Z,101716.09
2023-05-08T06:00:56.108Z,101729.31
2023-05-08T06:03:25.962Z,101693.44
2023-05-08T06:05:56.604Z,101729.66
2023-05-08T06:08:30.824Z,101727.66
2023-05-08T06:11:03.844Z,101647.06
2023-05-08T06:13:33.953Z,101722.28
2023-05-08T06:16:04.169Z,101706.06
2023-05-08T06:18:33.965Z,101717.03
2023-05-08T06:21:03.788Z,101716.56
2023-05-08T06:23:36.184Z,101698.91
2023-05-08T06:26:06.206Z,101714.56
2023-05-08T06:28:36.391Z,101723.41
2023-05-08T06:31:06.461Z,101710.72
2023-05-08T06:33:36.280Z,101715.44
2023-05-08T06:36:07.400Z,101706.41
2023-05-08T06:38:39.749Z,101723.44
2023-05-08T06:41:09.618Z,101688.22
2023-05-08T06:43:39.387Z,101696.84
2023-05-08T06:46:09.211Z,101705.28
2023-05-08T06:48:39.058Z,101723.69
2023-05-08T06:51:08.939Z,101731.66
2023-05-08T06:53:41.285Z,101718.06
2023-05-08T06:56:11.147Z,101729.34
2023-05-08T06:58:40.909Z,101685.69
2023-05-08T07:01:10.855Z,101709.78
2023-05-08T07:03:41.788Z,101697.94
2023-05-08T07:06:12.334Z,101708.50
2023-05-08T07:08:44.724Z,101729.09
2023-05-08T07:11:14.533Z,101719.22
2023-05-08T07:13:46.368Z,101718.91
2023-05-08T07:16:16.491Z,101718.94
2023-05-08T07:18:46.815Z,101718.94
2023-05-08T07:21:18.232Z,101722.22
2023-05-08T07:23:51.891Z,101708.38
2023-05-08T07:26:21.674Z,101697.03
2023-05-08T07:28:53.975Z,101693.78
2023-05-08T07:31:24.151Z,101682.56
2023-05-08T07:33:53.954Z,101718.63
2023-05-08T07:36:23.793Z,101722.91
2023-05-08T07:38:56.820Z,101702.50
2023-05-08T07:41:26.723Z,101726.22
2023-05-08T07:43:56.558Z,101725.50
2023-05-08T07:46:26.559Z,101702.69
2023-05-08T07:48:56.540Z,101712.16
2023-05-08T07:51:26.564Z,101713.78
2023-05-08T07:53:58.964Z,101708.22
2023-05-08T07:56:28.859Z,101700.84
2023-05-08T07:58:58.637Z,101714.03
2023-05-08T08:01:28.417Z,101689.97
2023-05-08T08:03:58.328Z,101705.63
2023-05-08T08:06:28.841Z,101713.50
2023-05-08T08:09:01.251Z,101702.53
2023-05-08T08:11:31.023Z,101698.22
2023-05-08T08:14:00.907Z,101692.47
2023-05-08T08:16:33.269Z,101650.84
2023-05-08T08:19:03.026Z,101669.78
2023-05-08T08:21:33.209Z,101696.88
2023-05-08T08:24:05.560Z,101694.16
2023-05-08T08:26:35.516Z,101681.44
2023-05-08T08:29:05.350Z,101688.53
2023-05-08T08:31:35.264Z,101685.06
2023-05-08T08:34:05.211Z,101690.19
2023-05-08T08:36:35.573Z,101671.06
2023-05-08T08:39:10.394Z,101688.63
2023-05-08T08:41:42.242Z,101676.69
2023-05-08T08:44:12.369Z,101690.63
2023-05-08T08:46:48.128Z,101684.78
2023-05-08T08:49:21.757Z,101677.91
2023-05-08T08:51:55.876Z,101672.47
2023-05-08T08:54:32.393Z,101653.66
2023-05-08T08:57:04.705Z,101657.25
2023-05-08T08:59:35.703Z,101678.97
2023-05-08T09:02:18.038Z,101666.66
2023-05-08T09:04:48.053Z,101676.97
2023-05-08T09:07:18.235Z,101667.28
2023-05-08T09:09:51.187Z,101676.16
2023-05-08T09:12:21.193Z,101679.59
2023-05-08T09:14:51.142Z,101664.16
2023-05-08T09:17:20.894Z,101687.66
2023-05-08T09:19:52.090Z,101680.75
2023-05-08T09:22:24.504Z,101648.00
2023-05-08T09:25:01.185Z,101677.47
2023-05-08T09:27:33.018Z,101678.50
2023-05-08T09:30:04.951Z,101670.72
2023-05-08T09:32:37.866Z,101680.97
2023-05-08T09:35:09.793Z,101634.41
2023-05-08T09:37:41.815Z,101661.25
2023-05-08T09:40:22.246Z,101670.09
2023-05-08T09:42:53.088Z,101672.72
2023-05-08T09:45:31.452Z,101649.50
2023-05-08T09:48:02.016Z,101624.53
2023-05-08T09:50:33.280Z,101667.03
2023-05-08T09:53:03.172Z,101658.44
2023-05-08T09:55:49.546Z,101636.91
2023-05-08T09:58:19.371Z,101655.91
2023-05-08T10:00:49.211Z,101651.66
2023-05-08T10:03:19.024Z,101655.13
2023-05-08T10:05:48.769Z,101665.56
2023-05-08T10:08:23.374Z,101653.56
2023-05-08T10:10:55.887Z,101655.31
2023-05-08T10:13:26.348Z,101644.97
2023-05-08T10:15:58.087Z,101626.88
2023-05-08T10:18:32.972Z,101642.41
2023-05-08T10:21:09.282Z,101638.97
2023-05-08T10:23:40.739Z,101644.13
2023-05-08T10:26:15.518Z,101651.91
2023-05-08T10:28:49.212Z,101640.69
2023-05-08T10:31:21.151Z,101631.19
2023-05-08T10:33:54.102Z,101650.16
2023-05-08T10:36:24.793Z,101649.31
2023-05-08T10:38:55.008Z,101657.06
2023-05-08T10:41:28.906Z,101645.88
2023-05-08T10:44:01.620Z,101618.25
2023-05-08T10:46:39.394Z,101641.56
2023-05-08T10:49:22.943Z,101624.28
2023-05-08T10:52:05.026Z,101607.03
2023-05-08T10:54:45.262Z,101645.88
2023-05-08T10:57:18.191Z,101626.88
2023-05-08T10:59:49.481Z,101615.66
2023-05-08T11:02:19.509Z,101627.75
2023-05-08T11:04:51.104Z,101620.84
2023-05-08T11:07:20.961Z,101626.00
2023-05-08T11:09:51.248Z,101629.44
2023-05-08T11:12:30.742Z,101628.59
2023-05-08T11:15:06.236Z,101631.16
2023-05-08T11:17:36.848Z,101622.56
2023-05-08T11:20:09.046Z,101614.69
2023-05-08T11:22:39.529Z,101636.22
2023-05-08T11:25:11.941Z,101634.47
2023-05-08T11:28:17.964Z,101627.56
2023-05-08T11:30:50.428Z,101626.66
2023-05-08T11:33:21.215Z,101616.28
2023-05-08T11:35:56.503Z,101582.63
2023-05-08T11:38:28.961Z,101627.47
2023-05-08T11:41:01.310Z,101641.34
2023-05-08T11:44:09.515Z,101624.06
2023-05-08T11:46:45.542Z,101627.50
2023-05-08T11:49:18.907Z,101613.63
2023-05-08T11:51:55.274Z,101617.03
2023-05-08T11:54:25.699Z,101598.06
2023-05-08T11:56:57.655Z,101603.22
2023-05-08T11:59:27.501Z,101594.63
2023-05-08T12:02:08.679Z,101603.94
2023-05-08T12:04:46.668Z,101625.44
2023-05-08T12:07:17.063Z,101610.81
2023-05-08T12:09:48.818Z,101623.69
2023-05-08T12:12:18.686Z,101579.84
2023-05-08T12:14:52.660Z,101610.78
2023-05-08T12:17:25.204Z,101616.75
2023-05-08T12:20:04.309Z,101610.56
2023-05-08T12:22:34.356Z,101605.38
2023-05-08T12:25:06.756Z,101622.41
2023-05-08T12:27:36.617Z,101597.34
2023-05-08T12:30:10.972Z,101611.94
2023-05-08T12:32:44.922Z,101618.88
2023-05-08T12:35:16.467Z,101605.06
2023-05-08T12:37:48.425Z,101615.41
2023-05-08T12:40:29.310Z,101618.06
2023-05-08T12:42:59.202Z,101610.34
2023-05-08T12:45:31.684Z,101598.38
2023-05-08T12:48:05.685Z,101586.38
2023-05-08T12:50:37.888Z,101608.69
2023-05-08T12:53:09.438Z,101583.75
2023-05-08T12:55:40.997Z,101607.94
2023-05-08T12:58:15.069Z,101624.41
2023-05-08T13:00:47.253Z,101484.00
2023-05-08T13:03:26.908Z,101567.31
2023-05-08T13:05:58.934Z,101563.78
2023-05-08T13:08:34.345Z,101589.69
2023-05-08T13:11:05.444Z,101473.56
2023-05-08T13:13:36.726Z,101594.22
2023-05-08T13:16:08.512Z,101587.28
2023-05-08T13:18:40.974Z,101583.78
2023-05-08T13:21:10.763Z,101583.00
2023-05-08T13:23:42.764Z,101572.63
2023-05-08T13:26:12.708Z,101575.25
2023-05-08T13:28:42.471Z,101559.00
2023-05-08T13:31:12.420Z,101570.16
2023-05-08T13:33:44.898Z,101551.16
2023-05-08T13:36:14.760Z,101560.63
2023-05-08T13:38:44.537Z,101555.41
2023-05-08T13:41:25.270Z,101552.72
2023-05-08T13:43:55.044Z,101520.94
2023-05-08T13:46:24.967Z,101556.28
2023-05-08T13:48:54.780Z,101552.03
2023-05-08T13:51:24.535Z,101531.31
2023-05-08T13:53:54.338Z,101545.97
2023-05-08T13:56:26.786Z,101548.69
2023-05-08T13:58:56.597Z,101559.84
2023-05-08T14:01:27.961Z,101546.88
2023-05-08T14:03:58.149Z,101546.03
2023-05-08T14:06:28.111Z,101540.88
2023-05-08T14:08:57.887Z,101506.47
2023-05-08T14:11:30.378Z,101534.75
2023-05-08T14:14:00.240Z,101530.47
2023-05-08T14:16:31.068Z,101534.81
2023-05-08T14:19:01.344Z,101512.38
2023-05-08T14:21:31.525Z,101551.03
2023-05-08T14:24:01.450Z,101517.53
2023-05-08T14:26:33.811Z,101539.00
2023-05-08T14:29:03.612Z,101509.72
2023-05-08T14:31:33.439Z,101527.69
2023-05-08T14:34:03.280Z,101515.56
2023-05-08T14:36:33.053Z,101530.19
2023-05-08T14:39:03.124Z,101521.47
2023-05-08T14:41:35.527Z,101521.38
2023-05-08T14:44:05.365Z,101501.56
2023-05-08T14:46:35.228Z,101528.31
2023-05-08T14:49:05.621Z,101514.53
2023-05-08T14:51:35.464Z,101515.28
2023-05-08T14:54:05.644Z,101511.00
2023-05-08T14:56:47.118Z,101513.53
2023-05-08T14:59:17.556Z,101478.19
2023-05-08T15:01:47.457Z,101501.31
2023-05-08T15:04:17.429Z,101511.75
2023-05-08T15:06:47.244Z,101504.84
2023-05-08T15:09:17.222Z,101494.63
2023-05-08T15:11:49.613Z,101482.53
2023-05-08T15:14:19.424Z,101490.94
2023-05-08T15:16:49.351Z,101458.09
2023-05-08T15:19:19.617Z,101505.13
2023-05-08T15:21:49.394Z,101507.53
2023-05-08T15:24:19.205Z,101489.53
2023-05-08T15:26:51.708Z,101495.19
2023-05-08T15:29:21.510Z,101472.75
2023-05-08T15:31:53.330Z,101497.88
2023-05-08T15:34:26.261Z,101506.66
2023-05-08T15:36:56.330Z,101497.22
2023-05-08T15:39:26.216Z,101500.47
2023-05-08T15:41:58.645Z,101491.03
2023-05-08T15:44:42.140Z,101456.63
2023-05-08T15:47:19.632Z,101498.72
2023-05-08T15:49:49.481Z,101496.13
2023-05-08T15:52:19.990Z,101501.84
2023-05-08T15:54:50.077Z,101476.47
2023-05-08T15:57:22.454Z,101481.03
2023-05-08T15:59:52.300Z,101487.16
2023-05-08T16:02:22.206Z,101472.50
2023-05-08T16:04:52.051Z,101465.50
2023-05-08T16:07:21.879Z,101484.34
2023-05-08T16:09:51.633Z,101490.50
2023-05-08T16:12:24.071Z,101492.28
2023-05-08T16:14:53.854Z,101471.56
2023-05-08T16:17:23.670Z,101496.69
2023-05-08T16:19:53.528Z,101495.88
2023-05-08T16:22:23.441Z,101442.72
2023-05-08T16:24:55.949Z,101448.75
2023-05-08T16:27:28.506Z,101471.22
2023-05-08T16:29:58.439Z,101486.72
2023-05-08T16:32:28.435Z,101491.84
2023-05-08T16:34:58.392Z,101456.56
2023-05-08T16:37:28.340Z,101428.94
2023-05-08T16:39:58.285Z,101474.47
2023-05-08T16:42:30.935Z,101489.94
2023-05-08T16:45:00.853Z,101423.72
2023-05-08T16:47:30.857Z,101484.88
2023-05-08T16:50:00.857Z,101456.50
2023-05-08T16:52:30.892Z,101460.00
2023-05-08T16:55:01.395Z,101375.63
2023-05-08T16:57:34.199Z,101467.69
2023-05-08T17:00:04.855Z,101475.59
2023-05-08T17:02:35.106Z,101463.44
2023-05-08T17:05:05.140Z,101476.41
2023-05-08T17:07:35.050Z,101489.38
2023-05-08T17:10:05.034Z,101469.59
2023-05-08T17:12:37.753Z,101454.88
2023-05-08T17:15:08.916Z,101479.94
2023-05-08T17:17:38.881Z,101476.47
2023-05-08T17:20:10.376Z,101455.72
2023-05-08T17:22:40.266Z,101465.22
2023-05-08T17:25:11.567Z,101457.50
2023-05-08T17:27:44.008Z,101474.78
2023-05-08T17:30:15.120Z,101431.84
2023-05-08T17:32:46.427Z,101476.47
2023-05-08T17:35:16.329Z,101475.59
2023-05-08T17:37:46.232Z,101482.53
2023-05-08T17:40:16.503Z,101483.41
2023-05-08T17:42:48.936Z,101473.09
2023-05-08T17:45:18.978Z,101460.31
2023-05-08T17:47:48.854Z,101451.00
2023-05-08T17:50:18.806Z,101482.84
2023-05-08T17:52:48.612Z,101451.91
2023-05-08T17:55:18.480Z,101466.75
2023-05-08T17:57:50.948Z,101487.31
2023-05-08T18:00:21.482Z,101489.94
2023-05-08T18:02:51.384Z,101424.56
2023-05-08T18:05:21.561Z,101484.91
2023-05-08T18:07:52.427Z,101492.75
2023-05-08T18:10:22.614Z,101491.09
2023-05-08T18:12:55.056Z,101485.94
2023-05-08T18:15:24.902Z,101492.88
2023-05-08T18:17:54.789Z,101492.91
2023-05-08T18:20:24.631Z,101459.34
2023-05-08T18:22:54.451Z,101488.69
2023-05-08T18:25:24.628Z,101508.56
2023-05-08T18:27:59.027Z,101505.97
2023-05-08T18:30:28.921Z,101511.19
2023-05-08T18:32:58.786Z,101512.94
2023-05-08T18:35:28.781Z,101504.34
2023-05-08T18:37:58.613Z,101508.66
2023-05-08T18:40:28.427Z,101454.41
2023-05-08T18:43:00.879Z,101500.09
2023-05-08T18:45:30.765Z,101410.53
2023-05-08T18:48:00.651Z,101454.44
2023-05-08T18:50:30.616Z,101515.66
2023-05-08T18:53:00.469Z,101520.84
2023-05-08T18:55:30.385Z,101521.72
2023-05-08T18:58:02.983Z,101514.81
2023-05-08T19:00:32.990Z,101514.81
2023-05-08T19:03:03.074Z,101517.38
2023-05-08T19:05:32.986Z,101509.59
2023-05-08T19:08:02.849Z,101508.72
2023-05-08T19:10:32.728Z,101514.72
2023-05-08T19:13:05.567Z,101515.59
2023-05-08T19:15:35.777Z,101509.53
2023-05-08T19:18:06.574Z,101457.78
2023-05-08T19:20:36.496Z,101514.69
2023-05-08T19:23:06.322Z,101516.38
2023-05-08T19:25:36.192Z,101511.22
2023-05-08T19:28:08.721Z,101521.56
2023-05-08T19:30:38.554Z,101516.38
2023-05-08T19:33:08.586Z,101453.41
2023-05-08T19:35:38.436Z,101512.09
2023-05-08T19:38:08.283Z,101511.22
2023-05-08T19:40:48.376Z,101514.69
2023-05-08T19:43:28.805Z,101487.97
2023-05-08T19:45:58.758Z,101506.03
2023-05-08T19:48:28.765Z,101491.38
2023-05-08T19:50:58.593Z,101479.25
2023-05-08T19:53:28.577Z,101512.03
2023-05-08T19:55:58.522Z,101493.88
2023-05-08T19:58:31.861Z,101497.31
2023-05-08T20:01:02.002Z,101485.25
2023-05-08T20:03:31.899Z,101509.34
2023-05-08T20:06:01.826Z,101502.44
2023-05-08T20:08:31.699Z,101491.25
2023-05-08T20:11:02.602Z,101510.19
2023-05-08T20:13:35.186Z,101511.16
2023-05-08T20:16:05.076Z,101439.56
2023-05-08T20:18:36.929Z,101455.88
2023-05-08T20:21:06.860Z,101505.91
2023-05-08T20:23:37.880Z,101503.31
2023-05-08T20:26:08.727Z,101498.09
2023-05-08T20:28:41.364Z,101511.88
2023-05-08T20:31:11.331Z,101512.72
2023-05-08T20:33:41.225Z,101512.72
2023-05-08T20:36:11.099Z,101448.09
2023-05-08T20:38:41.082Z,101505.03
2023-05-08T20:41:10.962Z,101495.53
2023-05-08T20:43:43.882Z,101486.94
2023-05-08T20:46:13.861Z,101486.97
2023-05-08T20:48:43.821Z,101500.75
2023-05-08T20:51:15.454Z,101492.09
2023-05-08T20:53:45.922Z,101494.72
2023-05-08T20:56:18.867Z,101491.25
2023-05-08T20:58:51.908Z,101494.72
2023-05-08T21:01:21.971Z,101478.38
2023-05-08T21:03:51.916Z,101432.69
2023-05-08T21:06:21.976Z,101487.84
2023-05-08T21:08:51.919Z,101482.69
2023-05-08T21:11:22.364Z,101417.97
2023-05-08T21:13:55.067Z,101420.59
2023-05-08T21:16:26.754Z,101471.47
2023-05-08T21:18:58.369Z,101469.75
2023-05-08T21:21:28.475Z,101468.00
2023-05-08T21:23:58.279Z,101460.22
2023-05-08T21:26:28.088Z,101438.66
2023-05-08T21:29:02.533Z,101451.56
2023-05-08T21:31:32.370Z,101458.44
2023-05-08T21:34:02.247Z,101448.97
2023-05-08T21:36:32.397Z,101456.72
2023-05-08T21:39:02.232Z,101462.72
2023-05-08T21:41:33.262Z,101449.81
2023-05-08T21:44:05.751Z,101452.38
2023-05-08T21:46:35.648Z,101416.88
2023-05-08T21:49:05.858Z,101462.56
2023-05-08T21:51:36.059Z,101400.34
2023-05-08T21:54:05.922Z,101447.84
2023-05-08T21:56:35.753Z,101389.97
2023-05-08T21:59:08.257Z,101446.03
2023-05-08T22:01:38.208Z,101428.75
2023-05-08T22:04:08.095Z,101431.38
2023-05-08T22:06:37.905Z,101439.91
2023-05-08T22:09:07.783Z,101442.44
2023-05-08T22:11:37.622Z,101441.56
2023-05-08T22:14:10.146Z,101424.28
2023-05-08T22:16:39.954Z,101443.09
2023-05-08T22:19:10.100Z,101444.00
2023-05-08T22:21:39.943Z,101373.31
2023-05-08T22:24:10.860Z,101417.47
2023-05-08T22:26:40.706Z,101433.03
2023-05-08T22:29:13.169Z,101427.22
2023-05-08T22:31:43.034Z,101423.72
2023-05-08T22:34:12.880Z,101424.63
2023-05-08T22:36:42.973Z,101412.63
2023-05-08T22:39:13.127Z,101346.16
2023-05-08T22:41:43.175Z,101414.38
2023-05-08T22:44:15.846Z,101348.81
2023-05-08T22:46:45.835Z,101360.81
2023-05-08T22:49:15.781Z,101407.41
2023-05-08T22:51:45.658Z,101354.75
2023-05-08T22:54:15.473Z,101408.25
2023-05-08T22:56:45.368Z,101389.28
2023-05-08T22:59:17.810Z,101396.28
2023-05-08T23:01:47.614Z,101390.25
2023-05-08T23:04:17.519Z,101386.84
2023-05-08T23:06:47.367Z,101310.94
2023-05-08T23:09:17.181Z,101387.47
2023-05-08T23:11:47.594Z,101360.59
2023-05-08T23:14:20.077Z,101383.03
2023-05-08T23:16:50.029Z,101376.97
2023-05-08T23:19:19.874Z,101390.31
2023-05-08T23:21:49.699Z,101368.38
2023-05-08T23:24:20.029Z,101379.09
2023-05-08T23:26:52.626Z,101367.59
2023-05-08T23:29:25.048Z,101377.88
2023-05-08T23:31:54.885Z,101383.00
2023-05-08T23:34:24.716Z,101385.34
2023-05-08T23:36:54.565Z,101357.69
2023-05-08T23:39:24.416Z,101371.66
2023-05-08T23:41:54.270Z,101322.53
2023-05-08T23:44:27.008Z,101361.59
2023-05-08T23:46:56.871Z,101369.22
2023-05-08T23:49:26.727Z,101361.59
2023-05-08T23:51:56.622Z,101365.03
2023-05-08T23:54:26.417Z,101335.56
2023-05-08T23:56:56.340Z,101302.81
2023-05-08T23:59:28.862Z,101362.59
